createdAt,value
2023-09-06T00:00:44.260Z,99.90
2023-09-06T00:03:12.283Z,99.90
2023-09-06T00:05:42.846Z,99.90
2023-09-06T00:08:14.485Z,99.90
2023-09-06T00:10:42.939Z,99.90
2023-09-06T00:13:11.109Z,99.90
2023-09-06T00:15:38.076Z,99.90
2023-09-06T00:18:09.834Z,99.90
2023-09-06T00:20:39.385Z,99.90
2023-09-06T00:23:10.041Z,99.90
2023-09-06T00:25:38.015Z,99.90
2023-09-06T00:28:06.593Z,99.90
2023-09-06T00:30:34.640Z,99.90
2023-09-06T00:33:06.937Z,99.90
2023-09-06T00:35:34.419Z,99.90
2023-09-06T00:38:07.477Z,99.90
2023-09-06T00:40:39.104Z,99.90
2023-09-06T00:43:16.414Z,99.90
2023-09-06T00:45:49.440Z,99.90
2023-09-06T00:48:36.932Z,99.90
2023-09-06T00:51:07.238Z,99.90
2023-09-06T00:53:34.800Z,99.90
2023-09-06T00:56:10.170Z,99.90
2023-09-06T00:58:37.888Z,99.90
2023-09-06T01:01:05.597Z,99.90
2023-09-06T01:03:33.061Z,99.90
2023-09-06T01:06:08.986Z,99.90
2023-09-06T01:08:47.661Z,99.90
2023-09-06T01:11:23.518Z,99.90
2023-09-06T01:13:53.902Z,99.90
2023-09-06T01:16:31.568Z,99.90
2023-09-06T01:18:59.318Z,99.90
2023-09-06T01:21:37.989Z,99.90
2023-09-06T01:24:07.065Z,99.90
2023-09-06T01:26:35.416Z,99.90
2023-09-06T01:29:02.668Z,99.90
2023-09-06T01:31:29.880Z,99.90
2023-09-06T01:33:57.069Z,99.90
2023-09-06T01:36:24.270Z,99.90
2023-09-06T01:38:53.952Z,99.90
2023-09-06T01:41:21.356Z,99.90
2023-09-06T01:43:51.496Z,99.90
2023-09-06T01:46:18.536Z,99.90
2023-09-06T01:48:46.224Z,99.90
2023-09-06T01:51:14.431Z,99.90
2023-09-06T01:53:42.041Z,99.90
2023-09-06T01:56:08.953Z,99.90
2023-09-06T01:58:41.780Z,99.90
2023-09-06T02:01:09.402Z,99.90
2023-09-06T02:03:38.146Z,99.90
2023-09-06T02:06:08.154Z,99.90
2023-09-06T02:08:36.934Z,99.90
2023-09-06T02:11:04.074Z,99.90
2023-09-06T02:13:30.951Z,99.90
2023-09-06T02:15:57.942Z,99.90
2023-09-06T02:18:26.849Z,99.90
2023-09-06T02:20:57.462Z,99.90
2023-09-06T02:23:24.513Z,99.90
2023-09-06T02:25:51.469Z,99.90
2023-09-06T02:28:18.895Z,99.90
2023-09-06T02:30:46.457Z,99.90
2023-09-06T02:33:14.958Z,99.90
2023-09-06T02:35:42.784Z,99.90
2023-09-06T02:38:11.074Z,99.90
2023-09-06T02:40:38.919Z,99.90
2023-09-06T02:43:06.160Z,99.90
2023-09-06T02:45:39.045Z,99.90
2023-09-06T02:48:17.144Z,99.90
2023-09-06T02:50:46.446Z,99.90
2023-09-06T02:53:21.311Z,99.90
2023-09-06T02:55:53.369Z,99.90
2023-09-06T02:58:25.330Z,99.90
2023-09-06T03:00:59.338Z,99.90
2023-09-06T03:11:29.285Z,99.90
2023-09-06T03:13:58.537Z,99.90
2023-09-06T03:16:27.116Z,99.90
2023-09-06T03:18:55.688Z,99.90
2023-09-06T03:21:22.974Z,99.90
2023-09-06T03:23:50.404Z,99.90
2023-09-06T03:26:17.625Z,99.90
2023-09-06T03:28:44.949Z,99.90
2023-09-06T03:31:16.978Z,99.90
2023-09-06T03:33:45.780Z,99.90
2023-09-06T03:36:12.936Z,99.90
2023-09-06T03:38:40.451Z,99.90
2023-09-06T03:41:08.874Z,99.90
2023-09-06T03:43:36.270Z,99.90
2023-09-06T03:46:08.714Z,99.90
2023-09-06T03:48:38.215Z,99.90
2023-09-06T03:51:05.977Z,99.90
2023-09-06T03:53:34.883Z,99.90
2023-09-06T03:56:02.426Z,99.90
2023-09-06T03:58:42.781Z,99.90
2023-09-06T04:01:12.886Z,99.90
2023-09-06T04:03:42.429Z,99.90
2023-09-06T04:06:12.156Z,99.90
2023-09-06T04:08:40.200Z,99.90
2023-09-06T04:11:07.451Z,99.90
2023-09-06T04:13:34.454Z,99.90
2023-09-06T04:16:01.494Z,99.90
2023-09-06T04:18:32.699Z,99.90
2023-09-06T04:21:09.865Z,99.90
2023-09-06T04:23:37.876Z,99.90
2023-09-06T04:26:05.883Z,99.90
2023-09-06T04:28:33.281Z,99.90
2023-09-06T04:31:03.038Z,99.90
2023-09-06T04:33:36.842Z,99.90
2023-09-06T04:36:16.558Z,99.90
2023-09-06T04:38:44.913Z,99.90
2023-09-06T04:41:12.742Z,99.90
2023-09-06T04:43:46.219Z,99.90
2023-09-06T04:46:15.691Z,99.90
2023-09-06T04:48:47.255Z,99.90
2023-09-06T04:51:15.801Z,99.90
2023-09-06T04:53:43.691Z,99.90
2023-09-06T04:56:11.113Z,99.90
2023-09-06T04:58:43.956Z,99.90
2023-09-06T05:01:11.797Z,99.90
2023-09-06T05:03:39.471Z,99.90
2023-09-06T05:06:06.537Z,99.90
2023-09-06T05:08:33.910Z,99.90
2023-09-06T05:11:07.785Z,99.90
2023-09-06T05:13:37.190Z,99.90
2023-09-06T05:16:04.417Z,99.90
2023-09-06T05:18:33.303Z,99.90
2023-09-06T05:21:05.958Z,99.90
2023-09-06T05:23:34.754Z,99.90
2023-09-06T05:26:01.830Z,99.90
2023-09-06T05:28:34.418Z,99.90
2023-09-06T05:31:04.357Z,99.90
2023-09-06T05:33:37.636Z,99.90
2023-09-06T05:36:04.727Z,99.90
2023-09-06T05:38:32.946Z,99.90
2023-09-06T05:41:02.377Z,99.90
2023-09-06T05:43:34.138Z,99.90
2023-09-06T05:46:00.960Z,99.90
2023-09-06T05:48:28.087Z,99.90
2023-09-06T05:50:56.547Z,99.90
2023-09-06T05:53:25.149Z,99.90
2023-09-06T05:55:52.893Z,99.90
2023-09-06T05:58:20.666Z,99.90
2023-09-06T06:00:47.810Z,99.90
2023-09-06T06:03:15.863Z,99.90
2023-09-06T06:05:43.830Z,99.90
2023-09-06T06:08:11.131Z,99.90
2023-09-06T06:10:38.081Z,99.90
2023-09-06T06:13:05.959Z,99.90
2023-09-06T06:15:33.036Z,99.90
2023-09-06T06:17:59.888Z,99.90
2023-09-06T06:20:38.559Z,99.90
2023-09-06T06:23:09.348Z,99.90
2023-09-06T06:25:37.283Z,99.90
2023-09-06T06:28:04.492Z,99.90
2023-09-06T06:30:31.643Z,99.90
2023-09-06T06:33:01.553Z,99.90
2023-09-06T06:35:28.977Z,99.90
2023-09-06T06:37:56.574Z,99.90
2023-09-06T06:40:25.583Z,99.90
2023-09-06T06:42:52.918Z,99.90
2023-09-06T06:45:20.570Z,99.90
2023-09-06T06:47:47.617Z,99.90
2023-09-06T06:50:15.130Z,99.90
2023-09-06T06:52:45.812Z,99.90
2023-09-06T06:55:13.259Z,99.90
2023-09-06T06:57:40.216Z,99.90
2023-09-06T07:00:12.333Z,99.90
2023-09-06T07:02:40.099Z,99.90
2023-09-06T07:05:07.399Z,99.90
2023-09-06T07:07:34.465Z,99.90
2023-09-06T07:10:02.755Z,99.90
2023-09-06T07:12:30.681Z,99.90
2023-09-06T07:14:57.650Z,99.90
2023-09-06T07:17:24.551Z,99.90
2023-09-06T07:19:51.925Z,99.90
2023-09-06T07:22:18.891Z,99.90
2023-09-06T07:24:46.279Z,99.90
2023-09-06T07:27:13.338Z,99.90
2023-09-06T07:29:40.648Z,99.90
2023-09-06T07:32:07.733Z,99.90
2023-09-06T07:34:34.760Z,99.90
2023-09-06T07:37:01.628Z,99.90
2023-09-06T07:39:28.444Z,99.90
2023-09-06T07:41:56.854Z,99.90
2023-09-06T07:44:23.891Z,99.90
2023-09-06T07:46:51.962Z,99.90
2023-09-06T07:49:22.077Z,99.90
2023-09-06T07:51:49.015Z,99.90
2023-09-06T07:54:15.816Z,99.90
2023-09-06T07:56:43.992Z,99.90
2023-09-06T07:59:13.712Z,99.90
2023-09-06T08:01:40.998Z,99.90
2023-09-06T08:04:10.549Z,99.90
2023-09-06T08:06:37.521Z,99.90
2023-09-06T08:09:04.728Z,99.90
2023-09-06T08:11:31.615Z,99.90
2023-09-06T08:13:58.414Z,99.90
2023-09-06T08:16:25.939Z,99.90
2023-09-06T08:18:52.756Z,99.90
2023-09-06T08:21:20.370Z,99.90
2023-09-06T08:23:47.355Z,99.90
2023-09-06T08:26:15.105Z,99.90
2023-09-06T08:28:42.253Z,99.90
2023-09-06T08:31:09.452Z,99.90
2023-09-06T08:33:36.933Z,99.90
2023-09-06T08:36:04.319Z,99.90
2023-09-06T08:38:34.046Z,99.90
2023-09-06T08:41:02.495Z,99.90
2023-09-06T08:43:36.343Z,99.90
2023-09-06T08:46:25.091Z,99.90
2023-09-06T08:48:53.755Z,99.30
2023-09-06T08:51:21.556Z,98.20
2023-09-06T08:53:49.383Z,97.30
2023-09-06T08:56:19.313Z,97.70
2023-09-06T08:58:46.466Z,96.50
2023-09-06T09:01:13.471Z,96.50
2023-09-06T09:03:40.449Z,95.50
2023-09-06T09:06:10.384Z,95.20
2023-09-06T09:08:37.704Z,95.50
2023-09-06T09:11:22.189Z,95.20
2023-09-06T09:13:49.059Z,94.30
2023-09-06T09:16:17.933Z,94.30
2023-09-06T09:18:46.521Z,93.80
2023-09-06T09:21:14.511Z,93.90
2023-09-06T09:23:54.093Z,93.30
2023-09-06T09:26:23.016Z,92.80
2023-09-06T09:28:51.023Z,92.00
2023-09-06T09:31:18.181Z,91.30
2023-09-06T09:33:48.397Z,91.00
2023-09-06T09:36:16.428Z,90.90
2023-09-06T09:38:48.161Z,90.50
2023-09-06T09:41:15.710Z,89.80
2023-09-06T09:43:42.566Z,89.40
2023-09-06T09:46:11.077Z,88.00
2023-09-06T09:48:40.370Z,87.30
2023-09-06T09:51:12.303Z,85.40
2023-09-06T09:53:41.334Z,85.90
2023-09-06T09:56:08.814Z,84.90
2023-09-06T09:58:40.288Z,85.10
2023-09-06T10:01:10.208Z,84.70
2023-09-06T10:03:40.256Z,84.10
2023-09-06T10:06:07.940Z,83.00
2023-09-06T10:08:36.815Z,83.10
2023-09-06T10:11:07.868Z,80.80
2023-09-06T10:13:39.158Z,78.70
2023-09-06T10:16:07.765Z,78.20
2023-09-06T10:18:35.962Z,78.30
2023-09-06T10:21:05.408Z,77.60
2023-09-06T10:23:33.481Z,78.80
2023-09-06T10:26:02.599Z,77.00
2023-09-06T10:28:33.235Z,76.20
2023-09-06T10:31:10.044Z,76.90
2023-09-06T10:33:37.510Z,75.70
2023-09-06T10:36:14.616Z,76.40
2023-09-06T10:38:53.849Z,74.90
2023-09-06T10:41:21.901Z,74.90
2023-09-06T10:43:58.656Z,75.20
2023-09-06T10:46:36.444Z,73.40
2023-09-06T10:49:22.286Z,73.10
2023-09-06T10:52:04.423Z,73.20
2023-09-06T10:54:43.313Z,72.70
2023-09-06T10:57:17.199Z,72.90
2023-09-06T10:59:58.208Z,72.60
2023-09-06T11:02:31.614Z,72.50
2023-09-06T11:05:11.713Z,73.00
2023-09-06T11:07:50.128Z,72.70
2023-09-06T11:10:26.356Z,71.30
2023-09-06T11:12:57.589Z,70.50
2023-09-06T11:15:25.476Z,69.30
2023-09-06T11:17:58.145Z,68.90
2023-09-06T11:20:25.153Z,67.90
2023-09-06T11:22:57.262Z,67.50
2023-09-06T11:25:26.277Z,66.80
2023-09-06T11:27:56.871Z,67.40
2023-09-06T11:30:24.933Z,66.70
2023-09-06T11:32:56.805Z,66.50
2023-09-06T11:35:36.033Z,66.10
2023-09-06T11:38:04.182Z,65.80
2023-09-06T11:40:34.665Z,66.50
2023-09-06T11:43:06.934Z,65.30
2023-09-06T11:45:34.409Z,64.30
2023-09-06T11:48:06.997Z,63.90
2023-09-06T11:50:35.491Z,62.90
2023-09-06T11:53:06.030Z,62.50
2023-09-06T11:55:34.807Z,63.20
2023-09-06T11:58:02.125Z,62.10
2023-09-06T12:00:44.535Z,61.50
2023-09-06T12:03:12.970Z,61.40
2023-09-06T12:05:49.825Z,61.00
2023-09-06T12:08:23.229Z,60.30
2023-09-06T12:11:06.537Z,60.20
2023-09-06T12:13:38.463Z,58.70
2023-09-06T12:16:12.497Z,59.00
2023-09-06T12:18:40.819Z,59.90
2023-09-06T12:21:08.451Z,60.10
2023-09-06T12:23:38.497Z,60.20
2023-09-06T12:26:06.859Z,59.80
2023-09-06T12:28:34.469Z,60.30
2023-09-06T12:31:16.689Z,58.40
2023-09-06T12:33:49.102Z,58.20
2023-09-06T12:36:18.933Z,58.60
2023-09-06T12:38:46.479Z,58.70
2023-09-06T12:41:13.945Z,59.40
2023-09-06T12:43:41.119Z,59.20
2023-09-06T12:46:08.325Z,58.80
2023-09-06T12:48:38.612Z,58.90
2023-09-06T12:51:07.394Z,58.10
2023-09-06T12:53:34.674Z,58.00
2023-09-06T12:56:01.601Z,56.70
2023-09-06T12:58:29.095Z,56.70
2023-09-06T13:00:58.666Z,57.00
2023-09-06T13:03:25.961Z,56.80
2023-09-06T13:05:53.073Z,57.40
2023-09-06T13:08:20.814Z,56.80
2023-09-06T13:10:48.407Z,56.40
2023-09-06T13:13:15.450Z,57.00
2023-09-06T13:15:42.370Z,57.30
2023-09-06T13:18:09.340Z,57.70
2023-09-06T13:20:36.204Z,56.40
2023-09-06T13:23:03.078Z,56.20
2023-09-06T13:25:30.176Z,56.40
2023-09-06T13:27:56.968Z,56.60
2023-09-06T13:30:24.013Z,56.50
2023-09-06T13:32:50.942Z,56.20
2023-09-06T13:35:17.892Z,55.70
2023-09-06T13:37:44.796Z,56.10
2023-09-06T13:40:12.631Z,56.00
2023-09-06T13:42:40.835Z,55.20
2023-09-06T13:45:08.632Z,55.00
2023-09-06T13:47:35.693Z,55.40
2023-09-06T13:50:03.163Z,55.00
2023-09-06T13:52:29.986Z,54.50
2023-09-06T13:54:56.887Z,54.70
2023-09-06T13:57:26.385Z,55.10
2023-09-06T14:00:05.545Z,55.30
2023-09-06T14:02:35.503Z,55.70
2023-09-06T14:05:04.840Z,55.40
2023-09-06T14:07:31.813Z,55.80
2023-09-06T14:09:59.496Z,55.50
2023-09-06T14:12:27.866Z,55.70
2023-09-06T14:14:57.775Z,55.40
2023-09-06T14:17:25.071Z,56.20
2023-09-06T14:19:52.200Z,55.60
2023-09-06T14:22:19.121Z,55.20
2023-09-06T14:24:46.123Z,54.80
2023-09-06T14:27:14.883Z,55.00
2023-09-06T14:29:42.613Z,55.00
2023-09-06T14:32:09.575Z,55.90
2023-09-06T14:34:36.509Z,55.80
2023-09-06T14:37:04.856Z,55.30
2023-09-06T14:39:34.136Z,54.90
2023-09-06T14:42:01.028Z,54.90
2023-09-06T14:44:27.961Z,54.70
2023-09-06T14:46:54.974Z,54.50
2023-09-06T14:49:22.268Z,54.50
2023-09-06T14:51:50.342Z,54.30
2023-09-06T14:54:20.321Z,54.00
2023-09-06T14:56:47.357Z,54.40
2023-09-06T14:59:14.256Z,54.10
2023-09-06T15:01:41.324Z,54.50
2023-09-06T15:04:08.819Z,55.30
2023-09-06T15:06:57.518Z,55.30
2023-09-06T15:09:26.338Z,55.10
2023-09-06T15:11:54.108Z,55.40
2023-09-06T15:14:21.200Z,54.80
2023-09-06T15:16:48.466Z,54.60
2023-09-06T15:19:15.349Z,54.90
2023-09-06T15:21:44.585Z,55.20
2023-09-06T15:24:13.322Z,55.50
2023-09-06T15:26:40.647Z,54.80
2023-09-06T15:29:07.649Z,54.70
2023-09-06T15:31:35.101Z,55.40
2023-09-06T15:34:02.311Z,55.90
2023-09-06T15:36:31.607Z,55.00
2023-09-06T15:38:59.027Z,55.50
2023-09-06T15:41:28.217Z,55.20
2023-09-06T15:43:58.278Z,55.80
2023-09-06T15:46:25.272Z,56.20
2023-09-06T15:48:55.603Z,56.40
2023-09-06T15:51:24.360Z,56.40
2023-09-06T15:53:51.453Z,56.10
2023-09-06T15:56:20.469Z,56.30
2023-09-06T15:58:47.381Z,56.60
2023-09-06T16:01:15.180Z,56.50
2023-09-06T16:03:42.209Z,56.60
2023-09-06T16:06:10.176Z,56.60
2023-09-06T16:08:37.285Z,56.60
2023-09-06T16:11:04.573Z,57.20
2023-09-06T16:13:31.408Z,57.50
2023-09-06T16:15:58.866Z,58.00
2023-09-06T16:18:25.698Z,57.70
2023-09-06T16:20:53.191Z,57.70
2023-09-06T16:23:20.014Z,57.60
2023-09-06T16:25:47.055Z,57.80
2023-09-06T16:28:13.903Z,58.10
2023-09-06T16:30:42.750Z,58.30
2023-09-06T16:33:12.264Z,58.20
2023-09-06T16:35:39.478Z,58.80
2023-09-06T16:38:09.421Z,59.40
2023-09-06T16:40:36.920Z,59.10
2023-09-06T16:43:04.224Z,59.70
2023-09-06T16:45:31.325Z,59.90
2023-09-06T16:47:58.571Z,60.10
2023-09-06T16:50:25.544Z,60.80
2023-09-06T16:52:52.574Z,61.20
2023-09-06T16:55:19.708Z,61.60
2023-09-06T16:57:46.731Z,61.60
2023-09-06T17:00:14.582Z,61.90
2023-09-06T17:02:41.482Z,62.60
2023-09-06T17:05:10.289Z,63.90
2023-09-06T17:07:39.158Z,65.40
2023-09-06T17:10:09.689Z,66.50
2023-09-06T17:12:37.080Z,68.30
2023-09-06T17:15:14.177Z,69.60
2023-09-06T17:17:41.263Z,70.40
2023-09-06T17:20:11.875Z,71.60
2023-09-06T17:22:40.420Z,72.10
2023-09-06T17:25:10.213Z,72.80
2023-09-06T17:27:37.593Z,73.70
2023-09-06T17:30:10.355Z,75.10
2023-09-06T17:32:41.283Z,77.00
2023-09-06T17:35:10.188Z,78.60
2023-09-06T17:37:37.623Z,80.50
2023-09-06T17:40:11.521Z,81.30
2023-09-06T17:42:38.582Z,82.60
2023-09-06T17:45:13.223Z,84.10
2023-09-06T17:47:42.923Z,85.30
2023-09-06T17:50:10.796Z,87.00
2023-09-06T17:52:40.515Z,87.80
2023-09-06T17:55:07.935Z,89.70
2023-09-06T17:57:35.431Z,90.50
2023-09-06T18:00:02.722Z,90.80
2023-09-06T18:02:39.108Z,91.20
2023-09-06T18:05:08.177Z,91.70
2023-09-06T18:07:35.357Z,92.50
2023-09-06T18:10:02.329Z,92.90
2023-09-06T18:12:29.220Z,93.60
2023-09-06T18:14:57.984Z,94.20
2023-09-06T18:17:27.611Z,94.80
2023-09-06T18:19:54.805Z,95.00
2023-09-06T18:22:21.624Z,96.10
2023-09-06T18:24:48.568Z,96.70
2023-09-06T18:27:15.468Z,97.60
2023-09-06T18:29:42.226Z,98.40
2023-09-06T18:32:09.154Z,99.50
2023-09-06T18:34:36.062Z,99.90
2023-09-06T18:37:02.919Z,99.90
2023-09-06T18:39:29.780Z,99.90
2023-09-06T18:41:56.626Z,99.90
2023-09-06T18:44:23.410Z,99.90
2023-09-06T18:46:50.809Z,99.90
2023-09-06T18:49:18.092Z,99.90
2023-09-06T18:51:44.846Z,99.90
2023-09-06T18:54:11.656Z,99.90
2023-09-06T18:56:38.366Z,99.90
2023-09-06T18:59:05.315Z,99.90
2023-09-06T19:05:52.609Z,99.90
2023-09-06T19:12:47.666Z,99.90
2023-09-06T19:24:14.235Z,99.90
2023-09-06T19:31:13.842Z,99.90
2023-09-06T19:37:59.099Z,99.90
2023-09-06T19:40:26.171Z,99.90
2023-09-06T19:42:53.168Z,99.90
2023-09-06T19:45:25.562Z,99.90
2023-09-06T19:47:52.559Z,99.90
2023-09-06T19:50:19.673Z,99.90
2023-09-06T19:52:46.494Z,99.90
2023-09-06T19:55:14.622Z,99.90
2023-09-06T19:57:41.481Z,99.90
2023-09-06T20:00:11.529Z,99.90
2023-09-06T20:02:43.204Z,99.90
2023-09-06T20:05:12.573Z,99.90
2023-09-06T20:07:39.908Z,99.90
2023-09-06T20:10:07.621Z,99.90
2023-09-06T20:12:34.558Z,99.90
2023-09-06T20:15:01.505Z,99.90
2023-09-06T20:17:28.515Z,99.90
2023-09-06T20:19:55.486Z,99.90
2023-09-06T20:22:22.440Z,99.90
2023-09-06T20:24:49.278Z,99.90
2023-09-06T20:27:16.162Z,99.90
2023-09-06T20:29:44.671Z,99.90
2023-09-06T20:32:11.470Z,99.90
2023-09-06T20:34:38.369Z,99.90
2023-09-06T20:37:06.278Z,99.90
2023-09-06T20:39:33.244Z,99.90
2023-09-06T20:42:00.232Z,99.90
2023-09-06T20:44:27.210Z,99.90
2023-09-06T20:46:54.049Z,99.90
2023-09-06T20:49:20.887Z,99.90
2023-09-06T20:51:48.426Z,99.90
2023-09-06T20:54:15.450Z,99.90
2023-09-06T20:56:42.511Z,99.90
2023-09-06T20:59:09.370Z,99.90
2023-09-06T21:01:36.296Z,99.90
2023-09-06T21:04:03.423Z,99.90
2023-09-06T21:06:30.236Z,99.90
2023-09-06T21:08:58.898Z,99.90
2023-09-06T21:11:25.872Z,99.90
2023-09-06T21:13:52.786Z,99.90
2023-09-06T21:16:19.629Z,99.90
2023-09-06T21:18:46.534Z,99.90
2023-09-06T21:21:13.788Z,99.90
2023-09-06T21:23:40.642Z,99.90
2023-09-06T21:26:10.204Z,99.90
2023-09-06T21:28:37.002Z,99.90
2023-09-06T21:31:04.713Z,99.90
2023-09-06T21:33:32.961Z,99.90
2023-09-06T21:36:00.100Z,99.90
2023-09-06T21:38:26.880Z,99.90
2023-09-06T21:40:53.665Z,99.90
2023-09-06T21:43:20.660Z,99.90
2023-09-06T21:45:50.252Z,99.90
2023-09-06T21:48:17.596Z,99.90
2023-09-06T21:50:49.901Z,99.90
2023-09-06T21:53:16.803Z,99.90
2023-09-06T21:55:43.592Z,99.90
2023-09-06T21:58:11.583Z,99.90
2023-09-06T22:00:40.357Z,99.90
2023-09-06T22:03:26.305Z,99.90
2023-09-06T22:06:13.099Z,99.90
2023-09-06T22:09:10.636Z,99.90
2023-09-06T22:11:55.875Z,99.90
2023-09-06T22:14:23.516Z,99.90
2023-09-06T22:16:50.186Z,99.90
2023-09-06T22:19:17.313Z,99.90
2023-09-06T22:21:44.229Z,99.90
2023-09-06T22:24:12.164Z,99.90
2023-09-06T22:26:39.066Z,99.90
2023-09-06T22:29:06.459Z,99.90
2023-09-06T22:31:34.486Z,99.90
2023-09-06T22:34:01.564Z,99.90
2023-09-06T22:36:29.945Z,99.90
2023-09-06T22:38:57.659Z,99.90
2023-09-06T22:41:24.461Z,99.90
2023-09-06T22:43:51.287Z,99.90
2023-09-06T22:46:18.324Z,99.90
2023-09-06T22:48:53.915Z,99.90
2023-09-06T22:51:21.824Z,99.90
2023-09-06T22:53:48.636Z,99.90
2023-09-06T22:56:15.489Z,99.90
2023-09-06T22:58:42.618Z,99.90
2023-09-06T23:01:09.692Z,99.90
2023-09-06T23:03:36.852Z,99.90
2023-09-06T23:06:10.095Z,99.90
2023-09-06T23:08:39.893Z,99.90
2023-09-06T23:11:07.870Z,99.90
2023-09-06T23:13:35.807Z,99.90
2023-09-06T23:16:03.041Z,99.90
2023-09-06T23:18:32.503Z,99.90
2023-09-06T23:21:06.353Z,99.90
2023-09-06T23:23:34.625Z,99.90
2023-09-06T23:26:05.447Z,99.90
2023-09-06T23:28:35.417Z,99.90
2023-09-06T23:31:06.966Z,99.90
2023-09-06T23:33:40.300Z,99.90
2023-09-06T23:36:10.187Z,99.90
2023-09-06T23:38:38.511Z,99.90
2023-09-06T23:41:05.689Z,99.90
2023-09-06T23:43:32.884Z,99.90
2023-09-06T23:46:00.182Z,99.90
2023-09-06T23:48:29.257Z,99.90
2023-09-06T23:50:58.513Z,99.90
2023-09-06T23:53:26.824Z,99.90
2023-09-06T23:55:56.821Z,99.90
2023-09-06T23:58:27.074Z,99.90
